SVW2503 LEZG-LEGR
Flight info
| Callsign | SVW2503 |
|---|---|
| Flight time | 0h 55m |
| Altitude | 37000 |
| Route | CMA M176 DISVU N975 ADUXO N869 BLN |
| Aircraft | A320/M-SDE3FGHIRWY/LB1 |
Departure
| Time | 2026-05-01 09:30 |
|---|---|
| Airport | Zaragoza Airport (LEZG) |
Arrival
| Time | 2026-05-01 10:25 |
|---|---|
| Airport | F.G.L. Airport Granada-Jaén Airport (LEGR) |
| Time | Latitude | Longitude | Altitude | Speed | Heading |
|---|---|---|---|---|---|
| 2026-05-01 09:15 | 41.66270 | -1.00838 | 872 ft | 0 kts | 282° |
| 2026-05-01 09:24 | 41.66270 | -1.00839 | 872 ft | 1 kts | 281° |
| 2026-05-01 09:25 | 41.66261 | -1.00848 | 872 ft | 2 kts | 219° |
| 2026-05-01 09:25 | 41.66226 | -1.01015 | 872 ft | 18 kts | 256° |
| 2026-05-01 09:26 | 41.66183 | -1.01210 | 872 ft | 26 kts | 255° |
| 2026-05-01 09:26 | 41.66208 | -1.01726 | 872 ft | 32 kts | 300° |
| 2026-05-01 09:26 | 41.66311 | -1.01966 | 872 ft | 30 kts | 300° |
| 2026-05-01 09:27 | 41.66547 | -1.02501 | 872 ft | 36 kts | 300° |
| 2026-05-01 09:27 | 41.66677 | -1.02796 | 872 ft | 38 kts | 300° |
| 2026-05-01 09:27 | 41.66810 | -1.03103 | 872 ft | 39 kts | 300° |
| 2026-05-01 09:28 | 41.66949 | -1.03428 | 872 ft | 41 kts | 300° |
| 2026-05-01 09:28 | 41.67088 | -1.03744 | 872 ft | 24 kts | 298° |
| 2026-05-01 09:28 | 41.67036 | -1.03856 | 872 ft | 16 kts | 213° |
| 2026-05-01 09:28 | 41.66931 | -1.03940 | 872 ft | 19 kts | 205° |
| 2026-05-01 09:29 | 41.66453 | -1.02926 | 872 ft | 124 kts | 120° |
| 2026-05-01 09:29 | 41.65958 | -1.01790 | 1154 ft | 145 kts | 120° |
| 2026-05-01 09:30 | 41.65088 | -0.99854 | 2280 ft | 151 kts | 120° |
| 2026-05-01 09:30 | 41.64324 | -0.98103 | 2764 ft | 179 kts | 120° |
| 2026-05-01 09:30 | 41.63153 | -0.95410 | 3347 ft | 221 kts | 121° |
| 2026-05-01 09:31 | 41.62337 | -0.93537 | 3837 ft | 245 kts | 121° |
| 2026-05-01 09:31 | 41.61455 | -0.91526 | 4655 ft | 255 kts | 123° |
| 2026-05-01 09:31 | 41.58359 | -0.89583 | 6418 ft | 267 kts | 191° |
| 2026-05-01 09:32 | 41.56692 | -0.90670 | 7280 ft | 272 kts | 220° |
| 2026-05-01 09:32 | 41.54229 | -0.94567 | 9119 ft | 278 kts | 233° |
| 2026-05-01 09:32 | 41.53087 | -0.96665 | 10010 ft | 281 kts | 233° |
| 2026-05-01 09:33 | 41.51886 | -0.98774 | 10581 ft | 295 kts | 231° |
| 2026-05-01 09:33 | 41.50543 | -1.00985 | 10821 ft | 318 kts | 230° |
| 2026-05-01 09:33 | 41.47442 | -1.05736 | 11472 ft | 353 kts | 228° |
| 2026-05-01 09:34 | 41.45728 | -1.08112 | 12110 ft | 358 kts | 221° |
| 2026-05-01 09:34 | 41.43685 | -1.10039 | 12785 ft | 362 kts | 209° |
| 2026-05-01 09:34 | 41.38879 | -1.12246 | 14122 ft | 371 kts | 194° |
| 2026-05-01 09:35 | 41.36366 | -1.13083 | 14725 ft | 374 kts | 194° |
| 2026-05-01 09:35 | 41.31267 | -1.14815 | 15885 ft | 381 kts | 195° |
| 2026-05-01 09:35 | 41.28689 | -1.15699 | 16381 ft | 387 kts | 195° |
| 2026-05-01 09:36 | 41.26026 | -1.16610 | 16508 ft | 403 kts | 195° |
| 2026-05-01 09:36 | 41.23257 | -1.17551 | 16643 ft | 418 kts | 194° |
| 2026-05-01 09:36 | 41.20392 | -1.18516 | 16778 ft | 431 kts | 194° |
| 2026-05-01 09:36 | 41.17457 | -1.19500 | 17142 ft | 436 kts | 194° |
| 2026-05-01 09:37 | 41.14505 | -1.20491 | 17648 ft | 439 kts | 195° |
| 2026-05-01 09:37 | 41.08567 | -1.22486 | 18617 ft | 445 kts | 195° |
| 2026-05-01 09:37 | 41.05560 | -1.23494 | 19050 ft | 447 kts | 195° |
| 2026-05-01 09:38 | 40.99503 | -1.25525 | 19932 ft | 451 kts | 195° |
| 2026-05-01 09:38 | 40.96457 | -1.26547 | 20351 ft | 453 kts | 195° |
| 2026-05-01 09:38 | 40.93397 | -1.27571 | 20756 ft | 454 kts | 195° |
| 2026-05-01 09:39 | 40.87164 | -1.29220 | 21467 ft | 460 kts | 184° |
| 2026-05-01 09:39 | 40.83951 | -1.29023 | 21817 ft | 465 kts | 173° |
| 2026-05-01 09:39 | 40.80755 | -1.28328 | 22145 ft | 466 kts | 176° |
| 2026-05-01 09:40 | 40.77544 | -1.28650 | 22457 ft | 465 kts | 196° |
| 2026-05-01 09:40 | 40.72337 | -1.33440 | 23126 ft | 467 kts | 235° |
| 2026-05-01 09:40 | 40.70927 | -1.37296 | 23448 ft | 471 kts | 251° |
| 2026-05-01 09:41 | 40.69926 | -1.41413 | 23814 ft | 472 kts | 250° |
| 2026-05-01 09:41 | 40.67669 | -1.49504 | 24678 ft | 469 kts | 248° |
| 2026-05-01 09:41 | 40.66478 | -1.53489 | 25137 ft | 467 kts | 247° |
| 2026-05-01 09:42 | 40.65290 | -1.57457 | 25604 ft | 465 kts | 247° |
| 2026-05-01 09:42 | 40.64118 | -1.61422 | 26093 ft | 463 kts | 247° |
| 2026-05-01 09:42 | 40.61841 | -1.69338 | 27077 ft | 460 kts | 248° |
| 2026-05-01 09:43 | 40.59620 | -1.77207 | 28069 ft | 457 kts | 248° |
| 2026-05-01 09:43 | 40.58508 | -1.81121 | 28590 ft | 455 kts | 248° |
| 2026-05-01 09:43 | 40.57398 | -1.85015 | 29114 ft | 454 kts | 248° |
| 2026-05-01 09:44 | 40.55176 | -1.92744 | 30169 ft | 450 kts | 247° |
| 2026-05-01 09:44 | 40.54063 | -1.96589 | 30625 ft | 449 kts | 247° |
| 2026-05-01 09:44 | 40.52937 | -2.00416 | 31059 ft | 448 kts | 245° |
| 2026-05-01 09:45 | 40.51478 | -2.04005 | 31478 ft | 445 kts | 235° |
| 2026-05-01 09:45 | 40.47280 | -2.09895 | 32301 ft | 443 kts | 217° |
| 2026-05-01 09:45 | 40.44726 | -2.12169 | 32707 ft | 443 kts | 214° |
| 2026-05-01 09:46 | 40.42160 | -2.14408 | 33117 ft | 443 kts | 214° |
| 2026-05-01 09:46 | 40.39597 | -2.16652 | 33511 ft | 443 kts | 215° |
| 2026-05-01 09:46 | 40.37031 | -2.18903 | 33884 ft | 443 kts | 215° |
| 2026-05-01 09:46 | 40.34469 | -2.21159 | 34254 ft | 444 kts | 216° |
| 2026-05-01 09:47 | 40.31903 | -2.23421 | 34562 ft | 445 kts | 216° |
| 2026-05-01 09:47 | 40.29329 | -2.25684 | 34880 ft | 446 kts | 216° |
| 2026-05-01 09:47 | 40.26749 | -2.27948 | 35224 ft | 446 kts | 216° |
| 2026-05-01 09:47 | 40.24166 | -2.30207 | 35568 ft | 447 kts | 216° |
| 2026-05-01 09:48 | 40.21577 | -2.32468 | 35907 ft | 447 kts | 216° |
| 2026-05-01 09:48 | 40.18993 | -2.34723 | 36240 ft | 447 kts | 217° |
| 2026-05-01 09:48 | 40.16405 | -2.36977 | 36571 ft | 447 kts | 217° |
| 2026-05-01 09:48 | 40.13818 | -2.39227 | 36908 ft | 447 kts | 217° |
| 2026-05-01 09:49 | 40.11221 | -2.41485 | 37156 ft | 447 kts | 217° |
| 2026-05-01 09:49 | 40.08633 | -2.43736 | 37201 ft | 447 kts | 217° |
| 2026-05-01 09:49 | 40.03459 | -2.48234 | 37198 ft | 447 kts | 217° |
| 2026-05-01 09:50 | 39.98272 | -2.52730 | 37198 ft | 447 kts | 217° |
| 2026-05-01 09:50 | 39.93086 | -2.57217 | 37195 ft | 448 kts | 217° |
| 2026-05-01 09:51 | 39.87894 | -2.61716 | 37197 ft | 448 kts | 217° |
| 2026-05-01 09:51 | 39.82694 | -2.66200 | 37195 ft | 448 kts | 217° |
| 2026-05-01 09:52 | 39.77485 | -2.70669 | 37195 ft | 448 kts | 217° |
| 2026-05-01 09:52 | 39.72274 | -2.75139 | 37199 ft | 448 kts | 217° |
| 2026-05-01 09:53 | 39.67072 | -2.79603 | 37198 ft | 448 kts | 217° |
| 2026-05-01 09:53 | 39.61872 | -2.84059 | 37196 ft | 447 kts | 216° |
| 2026-05-01 09:54 | 39.56683 | -2.88497 | 37193 ft | 447 kts | 216° |
| 2026-05-01 09:54 | 39.51492 | -2.92924 | 37199 ft | 446 kts | 216° |
| 2026-05-01 09:55 | 39.46307 | -2.97339 | 37201 ft | 445 kts | 216° |
| 2026-05-01 09:55 | 39.41121 | -3.01733 | 37195 ft | 445 kts | 213° |
| 2026-05-01 09:56 | 39.35427 | -3.04975 | 37186 ft | 449 kts | 203° |
| 2026-05-01 09:56 | 39.29583 | -3.07809 | 37183 ft | 448 kts | 204° |
| 2026-05-01 09:57 | 39.23740 | -3.10640 | 37179 ft | 448 kts | 203° |
| 2026-05-01 09:57 | 39.17909 | -3.13471 | 37178 ft | 447 kts | 203° |
| 2026-05-01 09:58 | 39.12080 | -3.16298 | 37178 ft | 447 kts | 203° |
| 2026-05-01 09:58 | 39.06250 | -3.19117 | 37178 ft | 447 kts | 203° |
| 2026-05-01 09:59 | 39.00427 | -3.21931 | 37179 ft | 447 kts | 203° |
| 2026-05-01 09:59 | 38.94603 | -3.24745 | 37177 ft | 447 kts | 203° |
| 2026-05-01 10:00 | 38.88777 | -3.27548 | 37176 ft | 447 kts | 203° |
| 2026-05-01 10:00 | 38.82944 | -3.30340 | 37176 ft | 447 kts | 203° |
| 2026-05-01 10:01 | 38.77112 | -3.33135 | 37173 ft | 447 kts | 203° |
| 2026-05-01 10:01 | 38.71279 | -3.35929 | 37178 ft | 448 kts | 203° |
| 2026-05-01 10:02 | 38.65436 | -3.38718 | 37177 ft | 448 kts | 203° |
| 2026-05-01 10:02 | 38.59591 | -3.41500 | 37178 ft | 448 kts | 203° |
| 2026-05-01 10:03 | 38.53737 | -3.44283 | 37180 ft | 448 kts | 204° |
| 2026-05-01 10:03 | 38.48878 | -3.46590 | 37173 ft | 448 kts | 204° |
| 2026-05-01 10:04 | 38.45971 | -3.47966 | 37019 ft | 444 kts | 204° |
| 2026-05-01 10:04 | 38.43082 | -3.49334 | 36761 ft | 442 kts | 204° |
| 2026-05-01 10:04 | 38.40193 | -3.50701 | 36501 ft | 441 kts | 204° |
| 2026-05-01 10:04 | 38.37316 | -3.52065 | 36238 ft | 441 kts | 204° |
| 2026-05-01 10:05 | 38.34440 | -3.53427 | 35988 ft | 442 kts | 204° |
| 2026-05-01 10:05 | 38.31553 | -3.54791 | 35735 ft | 442 kts | 204° |
| 2026-05-01 10:05 | 38.28660 | -3.56158 | 35244 ft | 443 kts | 203° |
| 2026-05-01 10:05 | 38.25753 | -3.57532 | 34445 ft | 448 kts | 203° |
| 2026-05-01 10:06 | 38.22817 | -3.58920 | 33512 ft | 453 kts | 203° |
| 2026-05-01 10:06 | 38.19858 | -3.60317 | 32645 ft | 455 kts | 203° |
| 2026-05-01 10:06 | 38.16872 | -3.61722 | 31711 ft | 459 kts | 203° |
| 2026-05-01 10:06 | 38.13856 | -3.63107 | 30779 ft | 463 kts | 202° |
| 2026-05-01 10:07 | 38.10800 | -3.64371 | 30015 ft | 459 kts | 200° |
| 2026-05-01 10:07 | 38.07747 | -3.65526 | 29180 ft | 457 kts | 199° |
| 2026-05-01 10:07 | 38.04686 | -3.66629 | 28360 ft | 458 kts | 199° |
| 2026-05-01 10:07 | 38.01611 | -3.67733 | 27574 ft | 460 kts | 199° |
| 2026-05-01 10:08 | 37.95445 | -3.70009 | 26058 ft | 463 kts | 199° |
| 2026-05-01 10:08 | 37.92351 | -3.71182 | 25334 ft | 464 kts | 199° |
| 2026-05-01 10:08 | 37.89272 | -3.72360 | 24622 ft | 460 kts | 199° |
| 2026-05-01 10:09 | 37.86219 | -3.73530 | 23932 ft | 456 kts | 199° |
| 2026-05-01 10:09 | 37.83190 | -3.74690 | 23150 ft | 452 kts | 199° |
| 2026-05-01 10:09 | 37.80193 | -3.75830 | 22340 ft | 447 kts | 199° |
| 2026-05-01 10:09 | 37.77226 | -3.76951 | 21572 ft | 443 kts | 199° |
| 2026-05-01 10:10 | 37.74286 | -3.78063 | 20813 ft | 439 kts | 199° |
| 2026-05-01 10:10 | 37.71375 | -3.79163 | 20054 ft | 434 kts | 199° |
| 2026-05-01 10:10 | 37.65637 | -3.81332 | 18563 ft | 426 kts | 199° |
| 2026-05-01 10:11 | 37.62806 | -3.82402 | 17732 ft | 423 kts | 199° |
| 2026-05-01 10:11 | 37.59998 | -3.83462 | 16899 ft | 420 kts | 199° |
| 2026-05-01 10:11 | 37.57204 | -3.84518 | 16086 ft | 417 kts | 199° |
| 2026-05-01 10:11 | 37.54438 | -3.85562 | 15296 ft | 414 kts | 198° |
| 2026-05-01 10:12 | 37.51679 | -3.86599 | 14528 ft | 412 kts | 198° |
| 2026-05-01 10:12 | 37.48899 | -3.87644 | 13740 ft | 411 kts | 198° |
| 2026-05-01 10:12 | 37.43668 | -3.89604 | 12103 ft | 376 kts | 198° |
| 2026-05-01 10:13 | 37.41207 | -3.90526 | 11315 ft | 361 kts | 198° |
| 2026-05-01 10:13 | 37.38842 | -3.91415 | 10554 ft | 349 kts | 197° |
| 2026-05-01 10:13 | 37.36573 | -3.92270 | 10148 ft | 329 kts | 197° |
| 2026-05-01 10:14 | 37.32493 | -3.93798 | 9744 ft | 289 kts | 197° |
| 2026-05-01 10:14 | 37.30596 | -3.94505 | 9402 ft | 279 kts | 197° |
| 2026-05-01 10:14 | 37.28763 | -3.95189 | 9068 ft | 269 kts | 197° |
| 2026-05-01 10:14 | 37.26996 | -3.95849 | 8734 ft | 261 kts | 197° |
| 2026-05-01 10:15 | 37.25274 | -3.96493 | 8404 ft | 254 kts | 197° |
| 2026-05-01 10:15 | 37.23697 | -3.97380 | 8091 ft | 245 kts | 215° |
| 2026-05-01 10:15 | 37.22498 | -3.98865 | 7773 ft | 243 kts | 235° |
| 2026-05-01 10:15 | 37.21801 | -4.00785 | 7505 ft | 243 kts | 256° |
| 2026-05-01 10:16 | 37.21687 | -4.02905 | 7386 ft | 246 kts | 275° |
| 2026-05-01 10:16 | 37.22174 | -4.04958 | 7267 ft | 247 kts | 296° |
| 2026-05-01 10:16 | 37.24265 | -4.08416 | 7031 ft | 249 kts | 307° |
| 2026-05-01 10:17 | 37.25349 | -4.10110 | 6913 ft | 249 kts | 307° |
| 2026-05-01 10:17 | 37.27283 | -4.13660 | 6670 ft | 243 kts | 281° |
| 2026-05-01 10:17 | 37.27128 | -4.15675 | 6545 ft | 231 kts | 240° |
| 2026-05-01 10:18 | 37.24701 | -4.17956 | 6287 ft | 216 kts | 201° |
| 2026-05-01 10:18 | 37.23264 | -4.18465 | 6150 ft | 214 kts | 187° |
| 2026-05-01 10:18 | 37.21782 | -4.18437 | 6033 ft | 213 kts | 168° |
| 2026-05-01 10:19 | 37.20412 | -4.17759 | 5900 ft | 214 kts | 148° |
| 2026-05-01 10:19 | 37.19329 | -4.16477 | 5786 ft | 215 kts | 126° |
| 2026-05-01 10:19 | 37.18707 | -4.14770 | 5659 ft | 217 kts | 104° |
| 2026-05-01 10:20 | 37.18566 | -4.11052 | 5461 ft | 211 kts | 91° |
| 2026-05-01 10:20 | 37.18587 | -4.09184 | 5466 ft | 217 kts | 91° |
| 2026-05-01 10:20 | 37.18607 | -4.07292 | 5469 ft | 217 kts | 91° |
| 2026-05-01 10:20 | 37.18627 | -4.05389 | 5471 ft | 218 kts | 91° |
| 2026-05-01 10:21 | 37.18646 | -4.03536 | 5471 ft | 205 kts | 91° |
| 2026-05-01 10:21 | 37.18680 | -4.00094 | 5092 ft | 189 kts | 91° |
| 2026-05-01 10:21 | 37.18696 | -3.98489 | 4855 ft | 180 kts | 91° |
| 2026-05-01 10:22 | 37.18724 | -3.95410 | 4393 ft | 173 kts | 91° |
| 2026-05-01 10:22 | 37.18751 | -3.92406 | 3947 ft | 173 kts | 91° |
| 2026-05-01 10:23 | 37.18764 | -3.90907 | 3712 ft | 171 kts | 91° |
| 2026-05-01 10:23 | 37.18790 | -3.87934 | 3249 ft | 166 kts | 91° |
| 2026-05-01 10:23 | 37.18803 | -3.86541 | 3049 ft | 155 kts | 91° |
| 2026-05-01 10:24 | 37.18824 | -3.83911 | 2622 ft | 149 kts | 90° |
| 2026-05-01 10:24 | 37.18845 | -3.81321 | 2217 ft | 148 kts | 90° |
| 2026-05-01 10:25 | 37.18866 | -3.78813 | 1876 ft | 129 kts | 91° |
| 2026-05-01 10:25 | 37.18876 | -3.77367 | 1865 ft | 34 kts | 89° |
| 2026-05-01 10:26 | 37.18841 | -3.77139 | 1866 ft | 26 kts | 104° |
| 2026-05-01 10:26 | 37.18771 | -3.76948 | 1865 ft | 9 kts | 152° |
| 2026-05-01 10:26 | 37.18711 | -3.77049 | 1865 ft | 10 kts | 269° |
| 2026-05-01 10:27 | 37.18712 | -3.77256 | 1867 ft | 14 kts | 270° |
| 2026-05-01 10:27 | 37.18707 | -3.77532 | 1866 ft | 19 kts | 267° |
| 2026-05-01 10:28 | 37.18660 | -3.77618 | 1867 ft | 5 kts | 172° |
| 2026-05-01 10:28 | 37.18580 | -3.77618 | 1870 ft | 6 kts | 182° |
| 2026-05-01 10:28 | 37.18567 | -3.77654 | 1871 ft | 6 kts | 268° |
| 2026-05-01 10:29 | 37.18567 | -3.77685 | 1871 ft | 0 kts | 269° |